首页
METAR-TAF:

METAR-TAF

机场 :

柏林-泰格尔奥托·利林塔尔机场

柏林, 德国

纬度: 52-34N, 经度: 013-19E, 海拔: 37米

当前天气观测

该预报发布于28分钟前的02:20 UTC
静风
温度 0°C
湿度 86%
气压 1024 hPa
能见度10公里或以上
1500米以下无云,无积雨云

METAR: EDDT 170220Z 00000KT CAVOK M00/M02 Q1024

时间: 03:48 (02:48 UTC)

预报

该预报发布于3小时和48分钟前的23:00 UTC
预报有效从17日的 00点(UTC)到 17日的 24点(UTC)
风速3节,风向多变
能见度10公里或以上
1500米以下无云,无积雨云
成为
从 17日的 09点(UTC)到 17日的 12点(UTC)
风速5节,风向东南

TAF: EDDT 162300Z 1700/1724 VRB03KT CAVOK BECMG 1709/1712 14005KT

超过4000个机场的气象观测和天气预报(METAR&TAF报告)。

可查询的气象台以黄色和红色小点在地图上表示。

将鼠标移到小点上方,可查看气象台名称。

然后点击查看天气观测和预报。

如需切换地图:点击带黑十字的绿色按钮放大地图;点击带横线的绿色按钮缩小地图;或者点击绿色箭头查看邻近地区的地图。


METAR-TAF: